Terminal Aerodrome Forecast
Issued by NWS

Home | Current Version | Previous Version | Graphics & Text | Print | Product List | Glossary On
Versions: 1 2 3 4 5 6 7 8 9 10 11 12 13 14
000
FTUS43 KICT 251700
TAFCNU
TAF
KCNU 251720Z 2518/2618 20010KT P6SM SKC
     FM260100 15005KT P6SM SKC
     FM261500 20006KT P6SM SKC=

USA.gov is the U.S. government's official web portal to all federal, state and local government web resources and services.